createdAt,value
2019-04-27T00:00:44.377Z,89.20
2019-04-27T00:03:23.334Z,89.80
2019-04-27T00:06:08.812Z,89.60
2019-04-27T00:08:40.093Z,90.00
2019-04-27T00:11:14.414Z,88.80
2019-04-27T00:13:44.127Z,89.00
2019-04-27T00:16:15.090Z,88.90
2019-04-27T00:19:03.910Z,88.50
2019-04-27T00:21:47.150Z,89.80
2019-04-27T00:24:17.285Z,89.50
2019-04-27T00:26:46.607Z,88.80
2019-04-27T00:29:16.053Z,88.70
2019-04-27T00:31:46.866Z,89.20
2019-04-27T00:34:16.370Z,88.70
2019-04-27T00:37:03.684Z,88.40
2019-04-27T00:39:35.051Z,88.80
2019-04-27T00:42:04.545Z,88.70
2019-04-27T00:44:34.905Z,89.50
2019-04-27T00:47:05.886Z,89.90
2019-04-27T00:49:35.466Z,88.70
2019-04-27T00:52:05.074Z,87.30
2019-04-27T00:54:34.401Z,88.60
2019-04-27T00:57:20.830Z,88.70
2019-04-27T01:00:09.135Z,88.10
2019-04-27T01:02:43.606Z,87.10
2019-04-27T01:05:15.823Z,88.10
2019-04-27T01:07:45.269Z,87.60
2019-04-27T01:10:14.513Z,88.30
2019-04-27T01:12:44.074Z,87.90
2019-04-27T01:15:13.834Z,88.10
2019-04-27T01:17:43.258Z,87.70
2019-04-27T01:20:12.501Z,88.20
2019-04-27T01:22:42.121Z,89.50
2019-04-27T01:25:11.374Z,88.60
2019-04-27T01:27:46.306Z,89.00
2019-04-27T01:30:23.192Z,89.40
2019-04-27T01:32:52.546Z,90.20
2019-04-27T01:35:22.125Z,90.70
2019-04-27T01:37:51.470Z,91.40
2019-04-27T01:40:21.042Z,90.80
2019-04-27T01:42:50.425Z,91.10
2019-04-27T01:45:19.670Z,91.40
2019-04-27T01:47:49.281Z,92.00
2019-04-27T01:50:18.909Z,91.60
2019-04-27T01:52:48.692Z,92.30
2019-04-27T01:55:18.866Z,92.20
2019-04-27T01:57:48.808Z,92.20
2019-04-27T02:00:41.158Z,92.60
2019-04-27T02:03:12.114Z,92.80
2019-04-27T02:05:43.029Z,93.60
2019-04-27T02:08:12.390Z,94.10
2019-04-27T02:10:41.671Z,93.30
2019-04-27T02:13:10.915Z,93.20
2019-04-27T02:15:40.190Z,93.60
2019-04-27T02:18:09.567Z,94.00
2019-04-27T02:20:40.164Z,93.90
2019-04-27T02:23:09.566Z,94.00
2019-04-27T02:25:39.687Z,93.90
2019-04-27T02:28:14.887Z,93.90
2019-04-27T02:31:02.380Z,93.80
2019-04-27T02:33:40.353Z,93.90
2019-04-27T02:36:14.733Z,93.90
2019-04-27T02:38:42.155Z,94.20
2019-04-27T02:41:11.413Z,94.50
2019-04-27T02:43:45.025Z,94.30
2019-04-27T02:46:14.619Z,94.90
2019-04-27T02:48:55.658Z,94.70
2019-04-27T02:51:20.435Z,94.30
2019-04-27T02:54:00.499Z,94.30
2019-04-27T02:56:30.780Z,94.60
2019-04-27T02:59:00.150Z,94.60
2019-04-27T03:01:31.050Z,94.50
2019-04-27T03:04:00.671Z,94.80
2019-04-27T03:06:30.321Z,94.40
2019-04-27T03:09:00.611Z,94.60
2019-04-27T03:11:32.495Z,94.30
2019-04-27T03:14:31.685Z,94.20
2019-04-27T03:16:49.638Z,94.50
2019-04-27T03:19:30.010Z,94.10
2019-04-27T03:22:13.101Z,94.00
2019-04-27T03:24:54.026Z,94.30
2019-04-27T03:27:42.717Z,94.70
2019-04-27T03:30:15.092Z,93.30
2019-04-27T03:32:44.466Z,93.70
2019-04-27T03:35:14.112Z,94.20
2019-04-27T03:37:43.562Z,93.70
2019-04-27T03:40:12.941Z,93.70
2019-04-27T03:42:44.512Z,93.60
2019-04-27T03:45:14.146Z,93.60
2019-04-27T03:47:43.395Z,93.50
2019-04-27T03:50:14.304Z,93.70
2019-04-27T03:52:50.938Z,93.60
2019-04-27T03:55:30.443Z,93.80
2019-04-27T03:58:03.716Z,93.80
2019-04-27T04:00:34.244Z,94.00
2019-04-27T04:03:03.662Z,93.70
2019-04-27T04:05:32.977Z,94.10
2019-04-27T04:08:02.355Z,94.40
2019-04-27T04:10:33.237Z,94.30
2019-04-27T04:13:06.825Z,94.50
2019-04-27T04:15:39.839Z,94.60
2019-04-27T04:18:09.766Z,94.30
2019-04-27T04:20:40.457Z,94.10
2019-04-27T04:23:10.657Z,94.20
2019-04-27T04:25:41.075Z,94.20
2019-04-27T04:28:10.500Z,94.00
2019-04-27T04:30:40.373Z,94.00
2019-04-27T04:33:10.362Z,94.10
2019-04-27T04:35:40.057Z,94.10
2019-04-27T04:38:10.329Z,94.40
2019-04-27T04:40:50.578Z,93.80
2019-04-27T04:43:21.866Z,94.40
2019-04-27T04:46:12.283Z,94.20
2019-04-27T04:48:40.450Z,94.10
2019-04-27T04:51:10.326Z,94.40
2019-04-27T04:53:40.609Z,94.50
2019-04-27T04:56:10.735Z,94.00
2019-04-27T04:58:41.702Z,94.60
2019-04-27T05:01:11.050Z,94.50
2019-04-27T05:03:40.464Z,94.70
2019-04-27T05:06:09.819Z,94.90
2019-04-27T05:08:39.424Z,95.20
2019-04-27T05:11:09.639Z,95.10
2019-04-27T05:13:40.050Z,95.10
2019-04-27T05:16:09.414Z,95.20
2019-04-27T05:18:39.370Z,95.10
2019-04-27T05:21:19.141Z,95.30
2019-04-27T05:23:48.767Z,95.30
2019-04-27T05:26:19.007Z,95.50
2019-04-27T05:28:49.762Z,95.80
2019-04-27T05:31:19.594Z,95.80
2019-04-27T05:33:49.091Z,95.60
2019-04-27T05:36:19.319Z,95.50
2019-04-27T05:38:49.813Z,95.80
2019-04-27T05:41:19.614Z,95.40
2019-04-27T05:43:59.009Z,95.60
2019-04-27T05:46:47.043Z,95.90
2019-04-27T05:49:20.973Z,96.00
2019-04-27T05:51:50.621Z,95.40
2019-04-27T05:54:20.166Z,95.50
2019-04-27T05:56:49.441Z,95.40
2019-04-27T05:59:19.879Z,95.30
2019-04-27T06:01:49.430Z,95.80
2019-04-27T06:04:19.409Z,95.50
2019-04-27T06:06:49.940Z,95.60
2019-04-27T06:09:19.606Z,96.10
2019-04-27T06:11:50.722Z,96.50
2019-04-27T06:14:20.079Z,96.50
2019-04-27T06:16:51.409Z,96.30
2019-04-27T06:19:20.754Z,95.70
2019-04-27T06:21:50.450Z,96.00
2019-04-27T06:24:19.712Z,95.40
2019-04-27T06:26:49.786Z,95.20
2019-04-27T06:29:19.670Z,95.70
2019-04-27T06:31:49.642Z,95.60
2019-04-27T06:34:19.484Z,95.30
2019-04-27T06:36:49.121Z,95.00
2019-04-27T06:39:20.231Z,95.50
2019-04-27T06:41:49.267Z,95.60
2019-04-27T06:44:19.635Z,95.40
2019-04-27T06:46:49.341Z,95.20
2019-04-27T06:49:19.477Z,95.60
2019-04-27T06:51:49.778Z,95.50
2019-04-27T06:54:19.872Z,95.80
2019-04-27T06:56:50.273Z,95.70
2019-04-27T06:59:19.522Z,95.60
2019-04-27T07:01:48.954Z,95.30
2019-04-27T07:04:19.606Z,94.50
2019-04-27T07:06:53.986Z,95.20
2019-04-27T07:09:20.535Z,95.10
2019-04-27T07:11:49.802Z,94.80
2019-04-27T07:14:19.823Z,95.00
2019-04-27T07:16:50.749Z,94.60
2019-04-27T07:19:20.254Z,94.80
2019-04-27T07:21:49.903Z,93.90
2019-04-27T07:24:19.693Z,94.70
2019-04-27T07:26:49.297Z,94.50
2019-04-27T07:29:19.524Z,94.20
2019-04-27T07:31:49.589Z,95.40
2019-04-27T07:34:20.244Z,93.80
2019-04-27T07:36:53.470Z,93.10
2019-04-27T07:39:22.736Z,93.80
2019-04-27T07:41:52.089Z,93.00
2019-04-27T07:44:25.777Z,93.50
2019-04-27T07:47:13.321Z,93.00
2019-04-27T07:49:42.985Z,92.30
2019-04-27T07:52:12.330Z,93.00
2019-04-27T07:54:41.622Z,92.80
2019-04-27T07:57:10.902Z,92.20
2019-04-27T07:59:42.002Z,92.30
2019-04-27T08:02:12.625Z,90.40
2019-04-27T08:04:41.986Z,90.00
2019-04-27T08:07:11.255Z,90.30
2019-04-27T08:09:40.502Z,90.50
2019-04-27T08:12:10.934Z,89.90
2019-04-27T08:14:40.797Z,89.30
2019-04-27T08:17:10.402Z,90.60
2019-04-27T08:19:39.669Z,88.60
2019-04-27T08:22:09.574Z,86.90
2019-04-27T08:24:39.661Z,90.00
2019-04-27T08:27:10.701Z,87.20
2019-04-27T08:29:58.806Z,87.00
2019-04-27T08:32:29.906Z,85.80
2019-04-27T08:34:59.553Z,84.30
2019-04-27T08:37:28.985Z,82.50
2019-04-27T08:39:59.214Z,84.30
2019-04-27T08:42:29.411Z,85.00
2019-04-27T08:45:00.005Z,85.80
2019-04-27T08:47:29.431Z,85.30
2019-04-27T08:49:59.263Z,83.80
2019-04-27T08:52:29.075Z,81.70
2019-04-27T08:54:59.423Z,82.20
2019-04-27T08:57:30.015Z,80.90
2019-04-27T08:59:59.767Z,83.20
2019-04-27T09:02:41.814Z,79.90
2019-04-27T09:05:01.491Z,78.70
2019-04-27T09:07:44.486Z,75.30
2019-04-27T09:10:15.722Z,75.70
2019-04-27T09:12:46.970Z,73.00
2019-04-27T09:15:26.501Z,75.80
2019-04-27T09:17:58.857Z,75.70
2019-04-27T09:20:46.917Z,76.00
2019-04-27T09:23:16.336Z,76.10
2019-04-27T09:25:45.614Z,76.50
2019-04-27T09:28:15.006Z,73.00
2019-04-27T09:30:44.286Z,75.10
2019-04-27T09:33:13.562Z,73.70
2019-04-27T09:35:42.819Z,70.80
2019-04-27T09:38:12.167Z,69.40
2019-04-27T09:40:41.548Z,69.30
2019-04-27T09:43:10.829Z,65.00
2019-04-27T09:45:40.768Z,68.20
2019-04-27T09:48:10.113Z,68.40
2019-04-27T09:50:39.759Z,67.50
2019-04-27T09:53:09.224Z,69.40
2019-04-27T09:55:38.802Z,69.80
2019-04-27T09:58:08.142Z,71.10
2019-04-27T10:00:37.534Z,74.00
2019-04-27T10:03:06.920Z,79.70
2019-04-27T10:05:36.870Z,83.10
2019-04-27T10:08:06.483Z,81.00
2019-04-27T10:10:37.134Z,80.50
2019-04-27T10:13:07.134Z,79.70
2019-04-27T10:15:36.906Z,79.60
2019-04-27T10:18:06.340Z,79.40
2019-04-27T10:20:39.080Z,78.90
2019-04-27T10:23:06.914Z,68.30
2019-04-27T10:25:37.544Z,65.20
2019-04-27T10:28:07.179Z,61.90
2019-04-27T10:30:36.453Z,64.30
2019-04-27T10:33:08.052Z,64.40
2019-04-27T10:35:37.123Z,63.30
2019-04-27T10:38:06.506Z,61.20
2019-04-27T10:40:35.870Z,61.20
2019-04-27T10:43:06.299Z,59.60
2019-04-27T10:45:37.916Z,57.40
2019-04-27T10:48:07.398Z,58.40
2019-04-27T10:50:36.826Z,55.70
2019-04-27T10:53:07.274Z,54.50
2019-04-27T10:55:37.011Z,54.10
2019-04-27T10:58:06.474Z,54.00
2019-04-27T11:00:49.401Z,54.60
2019-04-27T11:03:20.328Z,53.80
2019-04-27T11:06:00.238Z,56.50
2019-04-27T11:08:29.586Z,55.40
2019-04-27T11:10:58.873Z,58.50
2019-04-27T11:13:28.243Z,55.80
2019-04-27T11:15:57.762Z,53.50
2019-04-27T11:18:28.203Z,54.40
2019-04-27T11:20:57.937Z,53.80
2019-04-27T11:23:27.247Z,55.80
2019-04-27T11:25:56.635Z,54.70
2019-04-27T11:28:26.005Z,54.90
2019-04-27T11:30:55.334Z,56.70
2019-04-27T11:33:26.324Z,53.40
2019-04-27T11:36:15.407Z,55.00
2019-04-27T11:38:46.533Z,48.90
2019-04-27T11:41:17.806Z,52.10
2019-04-27T11:43:47.518Z,55.30
2019-04-27T11:46:16.847Z,57.50
2019-04-27T11:48:46.671Z,57.90
2019-04-27T11:51:17.483Z,56.00
2019-04-27T11:53:46.936Z,56.70
2019-04-27T11:56:17.848Z,57.00
2019-04-27T11:58:48.807Z,58.00
2019-04-27T12:01:18.477Z,55.20
2019-04-27T12:03:48.086Z,54.30
2019-04-27T12:06:17.486Z,54.70
2019-04-27T12:08:47.089Z,55.90
2019-04-27T12:11:17.458Z,53.30
2019-04-27T12:13:47.100Z,53.50
2019-04-27T12:16:17.575Z,56.00
2019-04-27T12:18:49.122Z,55.60
2019-04-27T12:21:18.170Z,54.70
2019-04-27T12:23:47.489Z,57.30
2019-04-27T12:26:21.642Z,56.30
2019-04-27T12:28:52.773Z,56.20
2019-04-27T12:31:29.430Z,55.80
2019-04-27T12:33:58.799Z,57.30
2019-04-27T12:36:28.074Z,58.10
2019-04-27T12:38:57.361Z,61.00
2019-04-27T12:41:26.618Z,63.30
2019-04-27T12:43:56.158Z,63.00
2019-04-27T12:46:25.586Z,61.90
2019-04-27T12:48:57.083Z,62.60
2019-04-27T12:51:25.858Z,62.20
2019-04-27T12:53:56.882Z,62.80
2019-04-27T12:56:46.189Z,62.30
2019-04-27T12:59:17.221Z,62.50
2019-04-27T13:01:46.493Z,60.00
2019-04-27T13:04:15.839Z,60.00
2019-04-27T13:06:46.902Z,59.00
2019-04-27T13:09:17.335Z,55.00
2019-04-27T13:11:47.034Z,52.20
2019-04-27T13:14:16.448Z,50.80
2019-04-27T13:16:47.462Z,51.60
2019-04-27T13:19:18.077Z,50.30
2019-04-27T13:21:47.349Z,50.70
2019-04-27T13:24:16.601Z,51.30
2019-04-27T13:26:45.922Z,48.90
2019-04-27T13:29:16.664Z,48.80
2019-04-27T13:31:46.223Z,49.60
2019-04-27T13:34:15.929Z,50.20
2019-04-27T13:36:45.801Z,49.80
2019-04-27T13:39:15.765Z,53.30
2019-04-27T13:41:46.324Z,53.50
2019-04-27T13:44:16.072Z,54.70
2019-04-27T13:47:03.861Z,54.70
2019-04-27T13:49:36.359Z,54.30
2019-04-27T13:52:07.353Z,52.40
2019-04-27T13:54:37.438Z,52.10
2019-04-27T13:57:07.620Z,50.50
2019-04-27T13:59:37.262Z,48.20
2019-04-27T14:02:06.928Z,50.30
2019-04-27T14:04:36.216Z,48.20
2019-04-27T14:07:05.816Z,48.60
2019-04-27T14:09:35.161Z,49.00
2019-04-27T14:12:09.305Z,50.20
2019-04-27T14:14:39.030Z,50.00
2019-04-27T14:17:09.832Z,50.90
2019-04-27T14:19:40.158Z,52.50
2019-04-27T14:22:09.541Z,50.50
2019-04-27T14:24:41.781Z,49.70
2019-04-27T14:27:12.040Z,50.10
2019-04-27T14:29:41.312Z,51.50
2019-04-27T14:32:10.966Z,49.50
2019-04-27T14:34:40.217Z,50.60
2019-04-27T14:37:09.818Z,51.50
2019-04-27T14:39:39.182Z,50.80
2019-04-27T14:42:08.872Z,52.00
2019-04-27T14:44:38.951Z,51.20
2019-04-27T14:47:08.477Z,53.00
2019-04-27T14:49:39.099Z,51.40
2019-04-27T14:52:09.634Z,52.00
2019-04-27T14:54:47.315Z,53.20
2019-04-27T14:57:10.119Z,54.40
2019-04-27T14:59:39.393Z,55.00
2019-04-27T15:02:09.110Z,55.70
2019-04-27T15:04:40.211Z,56.00
2019-04-27T15:07:09.628Z,56.00
2019-04-27T15:09:40.268Z,55.10
2019-04-27T15:12:09.515Z,54.60
2019-04-27T15:14:38.893Z,55.00
2019-04-27T15:17:08.150Z,54.80
2019-04-27T15:19:41.086Z,53.10
2019-04-27T15:22:19.196Z,54.10
2019-04-27T15:24:47.174Z,53.60
2019-04-27T15:27:15.757Z,54.10
2019-04-27T15:29:45.038Z,55.90
2019-04-27T15:32:39.425Z,55.90
2019-04-27T15:35:24.465Z,54.30
2019-04-27T15:38:04.996Z,55.20
2019-04-27T15:40:54.572Z,54.70
2019-04-27T15:43:27.410Z,55.60
2019-04-27T15:45:57.754Z,56.90
2019-04-27T15:48:30.400Z,55.40
2019-04-27T15:51:02.899Z,55.50
2019-04-27T15:53:29.465Z,56.40
2019-04-27T15:56:01.792Z,55.60
2019-04-27T15:58:31.159Z,54.90
2019-04-27T16:01:05.954Z,55.90
2019-04-27T16:03:31.529Z,56.60
2019-04-27T16:06:03.333Z,56.40
2019-04-27T16:08:32.221Z,56.30
2019-04-27T16:11:01.570Z,56.80
2019-04-27T16:13:33.169Z,57.20
2019-04-27T16:16:01.738Z,57.60
2019-04-27T16:18:32.667Z,57.50
2019-04-27T16:21:02.755Z,56.90
2019-04-27T16:23:33.609Z,56.40
2019-04-27T16:26:05.220Z,56.50
2019-04-27T16:28:35.578Z,56.00
2019-04-27T16:31:05.284Z,56.00
2019-04-27T16:33:34.747Z,55.80
2019-04-27T16:36:06.882Z,56.80
2019-04-27T16:38:38.825Z,56.50
2019-04-27T16:41:08.354Z,56.40
2019-04-27T16:43:38.544Z,57.00
2019-04-27T16:46:08.888Z,57.00
2019-04-27T16:48:38.995Z,57.00
2019-04-27T16:51:08.691Z,57.60
2019-04-27T16:53:41.118Z,57.70
2019-04-27T16:56:15.251Z,58.60
2019-04-27T16:58:42.813Z,57.90
2019-04-27T17:01:13.855Z,58.30
2019-04-27T17:03:43.240Z,58.40
2019-04-27T17:06:12.705Z,58.70
2019-04-27T17:08:42.057Z,58.70
2019-04-27T17:11:13.668Z,58.90
2019-04-27T17:13:49.660Z,58.90
2019-04-27T17:16:34.010Z,59.50
2019-04-27T17:19:19.461Z,59.60
2019-04-27T17:21:48.886Z,59.70
2019-04-27T17:24:41.532Z,59.60
2019-04-27T17:27:05.994Z,58.70
2019-04-27T17:29:38.643Z,59.70
2019-04-27T17:32:10.764Z,58.80
2019-04-27T17:34:40.131Z,59.30
2019-04-27T17:37:10.475Z,59.60
2019-04-27T17:39:39.834Z,58.80
2019-04-27T17:42:09.186Z,58.90
2019-04-27T17:44:39.332Z,59.10
2019-04-27T17:47:10.609Z,59.20
2019-04-27T17:49:39.700Z,60.00
2019-04-27T17:52:08.985Z,65.90
2019-04-27T17:54:42.487Z,69.50
2019-04-27T17:57:13.255Z,72.60
2019-04-27T17:59:40.673Z,74.60
2019-04-27T18:02:10.409Z,76.60
2019-04-27T18:04:41.042Z,77.30
2019-04-27T18:07:10.569Z,79.00
2019-04-27T18:09:43.500Z,78.00
2019-04-27T18:12:14.545Z,77.90
2019-04-27T18:14:42.134Z,79.00
2019-04-27T18:17:12.234Z,79.20
2019-04-27T18:19:45.553Z,79.90
2019-04-27T18:22:14.950Z,79.00
2019-04-27T18:24:55.657Z,79.00
2019-04-27T18:27:24.698Z,82.40
2019-04-27T18:29:55.598Z,85.80
2019-04-27T18:32:27.655Z,88.50
2019-04-27T18:34:55.992Z,88.90
2019-04-27T18:37:25.353Z,91.10
2019-04-27T18:39:55.120Z,91.80
2019-04-27T18:42:28.026Z,92.20
2019-04-27T18:44:55.425Z,92.90
2019-04-27T18:47:31.188Z,93.70
2019-04-27T18:50:12.855Z,93.80
2019-04-27T18:52:47.406Z,93.60
2019-04-27T18:55:16.823Z,93.90
2019-04-27T18:57:45.876Z,93.40
2019-04-27T19:00:17.983Z,92.50
2019-04-27T19:02:50.061Z,92.40
2019-04-27T19:05:18.916Z,93.20
2019-04-27T19:07:48.562Z,93.40
2019-04-27T19:10:19.410Z,92.90
2019-04-27T19:12:49.957Z,93.20
2019-04-27T19:15:19.626Z,93.40
2019-04-27T19:17:49.157Z,93.60
2019-04-27T19:20:18.758Z,93.70
2019-04-27T19:22:49.281Z,93.60
2019-04-27T19:25:20.255Z,93.40
2019-04-27T19:27:51.237Z,94.00
2019-04-27T19:30:22.129Z,94.00
2019-04-27T19:32:51.405Z,93.50
2019-04-27T19:35:20.717Z,93.60
2019-04-27T19:37:50.170Z,92.70
2019-04-27T19:40:19.558Z,93.90
2019-04-27T19:42:48.881Z,94.10
2019-04-27T19:45:20.796Z,94.10
2019-04-27T19:47:49.205Z,94.60
2019-04-27T19:50:19.324Z,94.60
2019-04-27T19:52:50.317Z,94.70
2019-04-27T19:55:19.729Z,94.10
2019-04-27T19:57:49.802Z,94.20
2019-04-27T20:00:37.250Z,94.00
2019-04-27T20:03:08.756Z,94.00
2019-04-27T20:05:38.888Z,94.00
2019-04-27T20:08:09.874Z,93.80
2019-04-27T20:10:39.242Z,93.90
2019-04-27T20:13:08.522Z,93.10
2019-04-27T20:15:37.986Z,93.50
2019-04-27T20:18:07.256Z,93.00
2019-04-27T20:20:36.517Z,92.90
2019-04-27T20:23:05.885Z,93.40
2019-04-27T20:25:35.429Z,93.00
2019-04-27T20:28:04.673Z,92.90
2019-04-27T20:30:35.461Z,92.80
2019-04-27T20:33:04.778Z,92.60
2019-04-27T20:35:34.124Z,92.60
2019-04-27T20:38:03.370Z,92.30
2019-04-27T20:40:32.651Z,91.90
2019-04-27T20:43:02.080Z,91.30
2019-04-27T20:45:32.765Z,91.60
2019-04-27T20:48:02.159Z,91.60
2019-04-27T20:50:32.905Z,91.60
2019-04-27T20:53:04.300Z,92.00
2019-04-27T20:55:33.641Z,91.90
2019-04-27T20:58:03.319Z,92.00
2019-04-27T21:00:33.129Z,91.80
2019-04-27T21:03:06.850Z,91.90
2019-04-27T21:05:37.809Z,92.00
2019-04-27T21:08:14.930Z,92.00
2019-04-27T21:10:44.301Z,92.40
2019-04-27T21:13:13.903Z,92.40
2019-04-27T21:15:43.513Z,92.10
2019-04-27T21:18:12.896Z,92.20
2019-04-27T21:20:42.249Z,92.10
2019-04-27T21:23:12.091Z,92.30
2019-04-27T21:25:42.218Z,92.30
2019-04-27T21:28:18.082Z,92.50
2019-04-27T21:30:43.514Z,92.30
2019-04-27T21:33:12.853Z,92.30
2019-04-27T21:35:42.288Z,92.60
2019-04-27T21:38:11.745Z,92.10
2019-04-27T21:40:41.136Z,91.50
2019-04-27T21:43:11.301Z,91.40
2019-04-27T21:45:42.120Z,91.80
2019-04-27T21:48:11.409Z,90.80
2019-04-27T21:50:41.303Z,90.90
2019-04-27T21:53:12.339Z,91.20
2019-04-27T21:55:42.257Z,91.00
2019-04-27T21:58:11.991Z,90.80
2019-04-27T22:00:43.118Z,90.60
2019-04-27T22:03:15.715Z,91.10
2019-04-27T22:05:45.342Z,90.70
2019-04-27T22:08:15.040Z,90.70
2019-04-27T22:10:44.649Z,90.60
2019-04-27T22:13:13.986Z,91.50
2019-04-27T22:15:43.526Z,91.20
2019-04-27T22:18:12.886Z,90.90
2019-04-27T22:20:42.728Z,91.80
2019-04-27T22:23:22.957Z,91.40
2019-04-27T22:25:52.047Z,92.00
2019-04-27T22:28:21.694Z,91.60
2019-04-27T22:30:50.990Z,91.40
2019-04-27T22:33:21.436Z,91.80
2019-04-27T22:35:51.758Z,91.10
2019-04-27T22:38:21.117Z,91.60
2019-04-27T22:40:55.218Z,91.70
2019-04-27T22:43:26.218Z,91.40
2019-04-27T22:45:56.534Z,91.60
2019-04-27T22:48:25.904Z,91.80
2019-04-27T22:50:55.815Z,90.70
2019-04-27T22:53:25.193Z,90.20
2019-04-27T22:56:13.490Z,90.60
2019-04-27T22:58:58.509Z,90.70
2019-04-27T23:01:26.326Z,91.10
2019-04-27T23:03:57.329Z,91.00
2019-04-27T23:06:26.663Z,91.80
2019-04-27T23:08:57.124Z,91.50
2019-04-27T23:11:26.362Z,91.30
2019-04-27T23:13:55.993Z,91.90
2019-04-27T23:16:26.874Z,91.50
2019-04-27T23:18:56.141Z,91.30
2019-04-27T23:21:25.517Z,91.50
2019-04-27T23:23:55.119Z,91.70
2019-04-27T23:26:24.478Z,91.50
2019-04-27T23:28:53.749Z,91.70
2019-04-27T23:31:27.549Z,91.30
2019-04-27T23:33:58.250Z,91.40
2019-04-27T23:36:27.901Z,91.90
2019-04-27T23:38:57.253Z,91.30
2019-04-27T23:41:26.527Z,91.90
2019-04-27T23:43:55.879Z,90.80
2019-04-27T23:46:25.154Z,91.00
2019-04-27T23:48:54.526Z,90.80
2019-04-27T23:51:34.594Z,91.40
2019-04-27T23:54:03.918Z,91.80
2019-04-27T23:56:34.620Z,92.20
2019-04-27T23:59:03.842Z,92.50
